createdAt,value
2018-08-06T00:00:26.302Z,22.71
2018-08-06T00:01:26.294Z,22.78
2018-08-06T00:02:26.287Z,22.70
2018-08-06T00:03:26.273Z,22.78
2018-08-06T00:04:26.266Z,22.73
2018-08-06T00:05:26.256Z,22.68
2018-08-06T00:06:26.252Z,22.67
2018-08-06T00:07:26.230Z,22.66
2018-08-06T00:08:26.218Z,22.68
2018-08-06T00:09:26.215Z,22.58
2018-08-06T00:10:26.211Z,22.61
2018-08-06T00:11:26.193Z,22.64
2018-08-06T00:12:26.311Z,22.58
2018-08-06T00:13:26.169Z,22.68
2018-08-06T00:14:26.241Z,22.58
2018-08-06T00:15:26.162Z,22.59
2018-08-06T00:16:26.144Z,22.62
2018-08-06T00:17:26.126Z,22.53
2018-08-06T00:18:26.264Z,22.66
2018-08-06T00:19:26.103Z,22.55
2018-08-06T00:20:26.100Z,22.44
2018-08-06T00:21:26.085Z,22.51
2018-08-06T00:22:26.109Z,22.53
2018-08-06T00:23:26.066Z,22.46
2018-08-06T00:24:26.060Z,22.41
2018-08-06T00:25:26.041Z,22.49
2018-08-06T00:26:26.032Z,22.43
2018-08-06T00:27:26.021Z,22.38
2018-08-06T00:28:26.086Z,22.37
2018-08-06T00:29:26.005Z,22.38
2018-08-06T00:30:25.988Z,22.34
2018-08-06T00:31:25.980Z,22.36
2018-08-06T00:32:25.965Z,22.31
2018-08-06T00:33:25.955Z,22.27
2018-08-06T00:34:25.948Z,22.31
2018-08-06T00:35:25.932Z,22.28
2018-08-06T00:36:25.920Z,22.30
2018-08-06T00:37:25.910Z,22.23
2018-08-06T00:38:25.905Z,22.27
2018-08-06T00:39:25.890Z,22.19
2018-08-06T00:40:25.876Z,22.27
2018-08-06T00:41:25.874Z,22.25
2018-08-06T00:42:25.858Z,22.25
2018-08-06T00:43:25.853Z,22.23
2018-08-06T00:44:25.842Z,22.16
2018-08-06T00:45:25.852Z,22.12
2018-08-06T00:46:25.817Z,22.13
2018-08-06T00:47:25.808Z,22.09
2018-08-06T00:48:25.797Z,22.09
2018-08-06T00:49:25.784Z,22.15
2018-08-06T00:50:25.783Z,22.12
2018-08-06T00:51:25.760Z,22.12
2018-08-06T00:52:25.753Z,22.16
2018-08-06T00:53:25.744Z,22.12
2018-08-06T00:54:25.735Z,21.98
2018-08-06T00:55:25.722Z,22.06
2018-08-06T00:56:25.723Z,22.03
2018-08-06T00:57:25.698Z,21.94
2018-08-06T00:58:25.685Z,21.97
2018-08-06T00:59:25.675Z,21.90
2018-08-06T01:00:25.666Z,21.96
2018-08-06T01:01:25.653Z,21.94
2018-08-06T01:02:25.641Z,21.94
2018-08-06T01:03:25.630Z,21.88
2018-08-06T01:04:25.625Z,21.97
2018-08-06T01:05:25.606Z,21.94
2018-08-06T01:06:25.601Z,21.91
2018-08-06T01:07:25.586Z,21.93
2018-08-06T01:08:25.575Z,21.88
2018-08-06T01:09:25.565Z,21.88
2018-08-06T01:10:25.554Z,21.85
2018-08-06T01:11:25.540Z,21.82
2018-08-06T01:12:25.534Z,21.88
2018-08-06T01:13:25.528Z,21.93
2018-08-06T01:14:25.512Z,21.90
2018-08-06T01:15:25.502Z,21.75
2018-08-06T01:16:25.498Z,21.82
2018-08-06T01:17:25.474Z,21.78
2018-08-06T01:18:25.469Z,21.74
2018-08-06T01:19:25.456Z,21.73
2018-08-06T01:20:25.442Z,21.73
2018-08-06T01:21:25.431Z,21.69
2018-08-06T01:22:25.424Z,21.66
2018-08-06T01:23:25.411Z,21.73
2018-08-06T01:24:25.397Z,21.67
2018-08-06T01:25:25.389Z,21.67
2018-08-06T01:26:25.377Z,21.63
2018-08-06T01:27:25.367Z,21.63
2018-08-06T01:28:25.355Z,21.55
2018-08-06T01:29:25.344Z,21.58
2018-08-06T01:30:25.345Z,21.63
2018-08-06T01:31:25.323Z,21.56
2018-08-06T01:32:25.316Z,21.55
2018-08-06T01:33:25.310Z,21.51
2018-08-06T01:34:25.289Z,21.50
2018-08-06T01:35:25.283Z,21.51
2018-08-06T01:36:25.264Z,21.44
2018-08-06T01:37:25.257Z,21.35
2018-08-06T01:38:25.246Z,21.35
2018-08-06T01:39:25.234Z,21.35
2018-08-06T01:40:25.226Z,21.44
2018-08-06T01:41:25.214Z,21.37
2018-08-06T01:42:25.209Z,21.40
2018-08-06T01:43:25.196Z,21.38
2018-08-06T01:44:25.176Z,21.41
2018-08-06T01:45:25.170Z,21.35
2018-08-06T01:46:25.155Z,21.32
2018-08-06T01:47:25.146Z,21.44
2018-08-06T01:48:25.133Z,21.32
2018-08-06T01:49:25.126Z,21.35
2018-08-06T01:50:25.118Z,21.34
2018-08-06T01:51:25.099Z,21.35
2018-08-06T01:52:25.102Z,21.25
2018-08-06T01:53:25.075Z,21.26
2018-08-06T01:54:25.066Z,21.22
2018-08-06T01:55:25.057Z,21.28
2018-08-06T01:56:25.041Z,21.25
2018-08-06T01:57:25.038Z,21.28
2018-08-06T01:58:25.037Z,21.23
2018-08-06T01:59:25.007Z,21.19
2018-08-06T02:00:24.994Z,21.19
2018-08-06T02:01:24.987Z,21.18
2018-08-06T02:02:25.012Z,21.16
2018-08-06T02:03:24.961Z,21.14
2018-08-06T02:04:24.947Z,21.08
2018-08-06T02:05:24.938Z,21.14
2018-08-06T02:06:24.925Z,21.07
2018-08-06T02:07:24.915Z,21.11
2018-08-06T02:08:24.909Z,21.11
2018-08-06T02:09:24.890Z,21.19
2018-08-06T02:10:24.885Z,21.10
2018-08-06T02:11:24.880Z,21.18
2018-08-06T02:12:24.859Z,21.05
2018-08-06T02:13:24.844Z,21.10
2018-08-06T02:14:24.835Z,21.07
2018-08-06T02:15:24.821Z,21.07
2018-08-06T02:16:24.969Z,21.04
2018-08-06T02:17:24.807Z,20.90
2018-08-06T02:18:24.844Z,20.93
2018-08-06T02:19:24.777Z,20.97
2018-08-06T02:20:24.765Z,20.93
2018-08-06T02:21:24.752Z,20.97
2018-08-06T02:22:24.742Z,20.93
2018-08-06T02:23:24.731Z,20.97
2018-08-06T02:24:24.725Z,20.88
2018-08-06T02:25:24.708Z,20.95
2018-08-06T02:26:24.697Z,20.85
2018-08-06T02:27:24.693Z,20.92
2018-08-06T02:28:24.677Z,20.83
2018-08-06T02:29:24.668Z,20.83
2018-08-06T02:30:24.658Z,20.86
2018-08-06T02:31:24.639Z,20.77
2018-08-06T02:32:24.626Z,20.79
2018-08-06T02:33:24.618Z,20.80
2018-08-06T02:34:24.606Z,20.75
2018-08-06T02:35:24.600Z,20.75
2018-08-06T02:36:24.589Z,20.70
2018-08-06T02:37:24.577Z,20.68
2018-08-06T02:38:24.562Z,20.71
2018-08-06T02:39:24.548Z,20.70
2018-08-06T02:40:24.538Z,20.64
2018-08-06T02:41:24.527Z,20.70
2018-08-06T02:42:24.520Z,20.61
2018-08-06T02:43:24.509Z,20.70
2018-08-06T02:44:24.486Z,20.73
2018-08-06T02:45:24.476Z,20.70
2018-08-06T02:46:24.465Z,20.68
2018-08-06T02:47:24.458Z,20.49
2018-08-06T02:48:24.447Z,20.53
2018-08-06T02:49:24.428Z,20.48
2018-08-06T02:50:24.422Z,20.48
2018-08-06T02:51:24.406Z,20.42
2018-08-06T02:52:24.395Z,20.49
2018-08-06T02:53:24.386Z,20.33
2018-08-06T02:54:24.368Z,20.37
2018-08-06T02:55:24.365Z,20.33
2018-08-06T02:56:24.353Z,20.34
2018-08-06T02:57:24.339Z,20.29
2018-08-06T02:58:24.324Z,20.33
2018-08-06T02:59:24.310Z,20.37
2018-08-06T03:00:24.299Z,20.33
2018-08-06T03:01:24.292Z,20.42
2018-08-06T03:02:24.281Z,20.36
2018-08-06T03:03:24.267Z,20.37
2018-08-06T03:04:24.254Z,20.36
2018-08-06T03:05:24.243Z,20.33
2018-08-06T03:06:24.231Z,20.37
2018-08-06T03:07:24.223Z,20.27
2018-08-06T03:08:24.207Z,20.23
2018-08-06T03:09:24.197Z,20.22
2018-08-06T03:10:24.186Z,20.22
2018-08-06T03:11:24.176Z,20.14
2018-08-06T03:12:24.162Z,20.17
2018-08-06T03:13:24.147Z,20.22
2018-08-06T03:14:24.140Z,20.12
2018-08-06T03:15:24.127Z,20.19
2018-08-06T03:16:24.110Z,20.15
2018-08-06T03:17:24.102Z,20.09
2018-08-06T03:18:24.088Z,20.11
2018-08-06T03:19:24.077Z,20.09
2018-08-06T03:20:24.063Z,20.09
2018-08-06T03:21:24.066Z,20.11
2018-08-06T03:22:24.041Z,20.08
2018-08-06T03:23:24.132Z,20.05
2018-08-06T03:24:24.017Z,20.08
2018-08-06T03:25:24.007Z,20.07
2018-08-06T03:26:24.006Z,20.05
2018-08-06T03:27:24.132Z,20.11
2018-08-06T03:28:23.970Z,20.04
2018-08-06T03:29:24.057Z,20.02
2018-08-06T03:30:23.945Z,20.07
2018-08-06T03:31:23.939Z,20.09
2018-08-06T03:32:23.927Z,20.11
2018-08-06T03:33:23.964Z,20.05
2018-08-06T03:34:23.899Z,20.09
2018-08-06T03:35:23.890Z,20.02
2018-08-06T03:36:23.886Z,20.07
2018-08-06T03:37:23.863Z,20.07
2018-08-06T03:38:23.857Z,20.02
2018-08-06T03:39:23.892Z,20.07
2018-08-06T03:40:23.835Z,20.17
2018-08-06T03:41:23.858Z,20.15
2018-08-06T03:42:23.809Z,20.07
2018-08-06T03:43:23.800Z,20.11
2018-08-06T03:44:23.776Z,20.15
2018-08-06T03:45:23.767Z,19.97
2018-08-06T03:46:23.759Z,19.90
2018-08-06T03:47:23.746Z,19.86
2018-08-06T03:48:23.735Z,19.90
2018-08-06T03:49:23.726Z,19.89
2018-08-06T03:50:23.708Z,19.86
2018-08-06T03:51:23.698Z,19.89
2018-08-06T03:52:23.687Z,19.97
2018-08-06T03:53:23.673Z,19.84
2018-08-06T03:54:23.664Z,19.81
2018-08-06T03:55:23.650Z,19.89
2018-08-06T03:56:23.635Z,19.89
2018-08-06T03:57:23.624Z,19.81
2018-08-06T03:58:23.621Z,19.89
2018-08-06T03:59:23.606Z,19.89
2018-08-06T04:00:23.589Z,19.89
2018-08-06T04:01:23.576Z,19.94
2018-08-06T04:02:23.565Z,19.90
2018-08-06T04:03:23.555Z,19.90
2018-08-06T04:04:23.547Z,19.93
2018-08-06T04:05:23.527Z,19.92
2018-08-06T04:06:23.516Z,19.92
2018-08-06T04:07:23.507Z,19.90
2018-08-06T04:08:23.493Z,19.96
2018-08-06T04:09:23.480Z,19.87
2018-08-06T04:10:23.466Z,19.90
2018-08-06T04:11:23.454Z,19.78
2018-08-06T04:12:23.454Z,19.89
2018-08-06T04:13:23.443Z,19.82
2018-08-06T04:14:23.418Z,19.89
2018-08-06T04:15:23.404Z,19.81
2018-08-06T04:16:23.398Z,19.79
2018-08-06T04:17:23.383Z,19.92
2018-08-06T04:18:23.377Z,19.78
2018-08-06T04:19:23.361Z,19.77
2018-08-06T04:20:23.348Z,19.81
2018-08-06T04:21:23.334Z,19.84
2018-08-06T04:22:23.325Z,19.74
2018-08-06T04:23:23.310Z,19.75
2018-08-06T04:24:23.299Z,19.75
2018-08-06T04:25:23.293Z,19.77
2018-08-06T04:26:23.280Z,19.74
2018-08-06T04:27:23.266Z,19.75
2018-08-06T04:28:23.251Z,19.79
2018-08-06T04:29:23.236Z,19.75
2018-08-06T04:30:23.227Z,19.72
2018-08-06T04:31:23.217Z,19.77
2018-08-06T04:32:23.205Z,19.82
2018-08-06T04:33:23.187Z,19.77
2018-08-06T04:34:23.178Z,19.74
2018-08-06T04:35:23.170Z,19.79
2018-08-06T04:36:23.151Z,19.82
2018-08-06T04:37:23.142Z,19.75
2018-08-06T04:38:23.175Z,19.63
2018-08-06T04:39:23.117Z,19.63
2018-08-06T04:40:23.111Z,19.60
2018-08-06T04:41:23.101Z,19.64
2018-08-06T04:42:23.080Z,19.62
2018-08-06T04:43:23.067Z,19.63
2018-08-06T04:44:23.056Z,19.63
2018-08-06T04:45:23.048Z,19.67
2018-08-06T04:46:23.032Z,19.77
2018-08-06T04:47:23.023Z,19.77
2018-08-06T04:48:23.008Z,19.72
2018-08-06T04:49:22.999Z,19.77
2018-08-06T04:50:22.987Z,19.82
2018-08-06T04:51:22.977Z,19.84
2018-08-06T04:52:22.959Z,19.79
2018-08-06T04:53:22.948Z,19.78
2018-08-06T04:54:22.935Z,19.81
2018-08-06T04:55:22.925Z,19.81
2018-08-06T04:56:22.918Z,19.84
2018-08-06T04:57:22.907Z,19.82
2018-08-06T04:58:22.889Z,19.86
2018-08-06T04:59:22.879Z,19.82
2018-08-06T05:00:22.864Z,19.87
2018-08-06T05:01:22.865Z,19.77
2018-08-06T05:02:22.843Z,19.82
2018-08-06T05:03:22.830Z,19.77
2018-08-06T05:04:22.819Z,19.82
2018-08-06T05:05:22.819Z,19.75
2018-08-06T05:06:22.793Z,19.79
2018-08-06T05:07:22.791Z,19.64
2018-08-06T05:08:22.771Z,19.64
2018-08-06T05:09:22.758Z,19.62
2018-08-06T05:10:22.752Z,19.63
2018-08-06T05:11:22.736Z,19.67
2018-08-06T05:12:22.731Z,19.68
2018-08-06T05:13:22.708Z,19.53
2018-08-06T05:14:22.697Z,19.63
2018-08-06T05:15:22.683Z,19.63
2018-08-06T05:16:22.670Z,19.75
2018-08-06T05:17:22.668Z,19.90
2018-08-06T05:18:22.652Z,19.84
2018-08-06T05:19:22.695Z,19.87
2018-08-06T05:20:22.640Z,19.74
2018-08-06T05:21:22.614Z,19.75
2018-08-06T05:22:22.600Z,19.90
2018-08-06T05:23:22.590Z,19.81
2018-08-06T05:24:22.580Z,19.81
2018-08-06T05:25:22.565Z,19.79
2018-08-06T05:26:22.555Z,19.70
2018-08-06T05:27:22.542Z,19.64
2018-08-06T05:28:22.529Z,19.79
2018-08-06T05:29:22.521Z,19.78
2018-08-06T05:30:22.508Z,19.84
2018-08-06T05:31:22.696Z,19.62
2018-08-06T05:32:22.488Z,19.62
2018-08-06T05:33:22.475Z,19.75
2018-08-06T05:34:22.458Z,19.82
2018-08-06T05:35:22.446Z,19.68
2018-08-06T05:36:22.434Z,19.54
2018-08-06T05:37:22.578Z,19.52
2018-08-06T05:38:22.412Z,19.52
2018-08-06T05:39:22.449Z,19.75
2018-08-06T05:40:22.389Z,19.82
2018-08-06T05:41:22.473Z,19.77
2018-08-06T05:42:22.367Z,19.67
2018-08-06T05:43:22.404Z,19.82
2018-08-06T05:44:22.338Z,19.90
2018-08-06T05:45:22.325Z,19.86
2018-08-06T05:46:22.316Z,19.86
2018-08-06T05:47:22.404Z,19.84
2018-08-06T05:48:22.415Z,19.84
2018-08-06T05:49:22.329Z,19.86
2018-08-06T05:50:22.271Z,19.96
2018-08-06T05:51:22.259Z,19.87
2018-08-06T05:52:22.249Z,19.89
2018-08-06T05:53:22.233Z,19.75
2018-08-06T05:54:22.218Z,19.78
2018-08-06T05:55:22.208Z,19.86
2018-08-06T05:56:22.200Z,19.87
2018-08-06T05:57:22.186Z,19.99
2018-08-06T05:58:22.190Z,19.99
2018-08-06T05:59:22.160Z,19.99
2018-08-06T06:00:22.148Z,20.04
2018-08-06T06:01:22.148Z,20.12
2018-08-06T06:02:22.124Z,20.12
2018-08-06T06:03:22.243Z,20.12
2018-08-06T06:04:22.105Z,20.05
2018-08-06T06:05:22.093Z,19.99
2018-08-06T06:06:22.079Z,20.12
2018-08-06T06:07:22.067Z,20.09
2018-08-06T06:08:22.059Z,20.02
2018-08-06T06:09:22.046Z,20.04
2018-08-06T06:10:22.037Z,20.12
2018-08-06T06:11:22.020Z,20.17
2018-08-06T06:12:22.008Z,20.23
2018-08-06T06:13:21.997Z,20.30
2018-08-06T06:14:21.984Z,20.34
2018-08-06T06:15:21.976Z,20.55
2018-08-06T06:16:21.960Z,20.63
2018-08-06T06:17:21.952Z,20.68
2018-08-06T06:18:21.936Z,20.74
2018-08-06T06:19:21.930Z,20.71
2018-08-06T06:20:21.914Z,20.83
2018-08-06T06:21:21.907Z,20.95
2018-08-06T06:22:21.891Z,20.98
2018-08-06T06:23:21.879Z,21.00
2018-08-06T06:24:21.865Z,21.13
2018-08-06T06:25:21.857Z,21.19
2018-08-06T06:26:21.843Z,21.23
2018-08-06T06:27:21.838Z,21.22
2018-08-06T06:28:21.832Z,21.28
2018-08-06T06:29:21.811Z,21.38
2018-08-06T06:30:21.798Z,21.43
2018-08-06T06:31:21.790Z,21.43
2018-08-06T06:32:21.783Z,21.45
2018-08-06T06:33:21.762Z,21.53
2018-08-06T06:34:21.768Z,21.47
2018-08-06T06:35:21.745Z,21.56
2018-08-06T06:36:21.727Z,21.55
2018-08-06T06:37:21.720Z,21.62
2018-08-06T06:38:21.712Z,21.65
2018-08-06T06:39:21.696Z,21.74
2018-08-06T06:40:21.684Z,21.77
2018-08-06T06:41:21.674Z,21.88
2018-08-06T06:42:21.667Z,21.98
2018-08-06T06:43:21.661Z,21.98
2018-08-06T06:44:21.641Z,21.82
2018-08-06T06:45:21.642Z,21.88
2018-08-06T06:46:21.619Z,21.94
2018-08-06T06:47:21.610Z,21.93
2018-08-06T06:48:21.597Z,22.01
2018-08-06T06:49:21.586Z,21.90
2018-08-06T06:50:21.674Z,22.00
2018-08-06T06:51:21.566Z,22.01
2018-08-06T06:52:21.602Z,22.12
2018-08-06T06:53:21.545Z,22.11
2018-08-06T06:54:21.631Z,22.27
2018-08-06T06:55:21.525Z,22.21
2018-08-06T06:56:21.519Z,22.27
2018-08-06T06:57:21.505Z,22.33
2018-08-06T06:58:21.540Z,22.52
2018-08-06T06:59:21.485Z,22.49
2018-08-06T07:00:21.514Z,22.56
2018-08-06T07:01:21.457Z,22.62
2018-08-06T07:02:21.442Z,22.71
2018-08-06T07:03:21.443Z,22.89
2018-08-06T07:04:21.421Z,22.86
2018-08-06T07:05:21.416Z,22.95
2018-08-06T07:06:21.444Z,23.01
2018-08-06T07:07:21.395Z,23.10
2018-08-06T07:08:21.387Z,23.07
2018-08-06T07:09:21.373Z,23.14
2018-08-06T07:10:21.367Z,23.25
2018-08-06T07:11:21.355Z,23.26
2018-08-06T07:12:21.343Z,23.29
2018-08-06T07:13:21.328Z,23.34
2018-08-06T07:14:21.322Z,23.34
2018-08-06T07:15:21.316Z,23.48
2018-08-06T07:16:21.300Z,23.54
2018-08-06T07:17:21.286Z,23.67
2018-08-06T07:18:21.286Z,23.78
2018-08-06T07:19:21.273Z,23.84
2018-08-06T07:20:21.318Z,23.88
2018-08-06T07:21:21.244Z,24.01
2018-08-06T07:22:21.236Z,24.01
2018-08-06T07:23:21.230Z,24.06
2018-08-06T07:24:21.220Z,24.07
2018-08-06T07:25:21.207Z,24.21
2018-08-06T07:26:21.202Z,24.16
2018-08-06T07:27:21.195Z,24.33
2018-08-06T07:28:21.173Z,24.36
2018-08-06T07:29:21.175Z,24.36
2018-08-06T07:30:21.155Z,24.40
2018-08-06T07:31:21.152Z,24.45
2018-08-06T07:32:21.140Z,24.45
2018-08-06T07:33:21.237Z,24.60
2018-08-06T07:34:21.116Z,24.66
2018-08-06T07:35:21.107Z,24.66
2018-08-06T07:36:21.108Z,24.81
2018-08-06T07:37:21.192Z,24.82
2018-08-06T07:38:21.085Z,24.75
2018-08-06T07:39:21.209Z,24.79
2018-08-06T07:40:21.065Z,24.93
2018-08-06T07:41:21.055Z,25.00
2018-08-06T07:42:21.044Z,24.91
2018-08-06T07:43:21.084Z,24.90
2018-08-06T07:44:21.021Z,24.91
2018-08-06T07:45:21.010Z,25.01
2018-08-06T07:46:21.020Z,25.11
2018-08-06T07:47:20.992Z,25.26
2018-08-06T07:48:20.984Z,25.33
2018-08-06T07:49:21.006Z,25.30
2018-08-06T07:50:20.965Z,25.49
2018-08-06T07:51:20.956Z,25.58
2018-08-06T07:52:20.955Z,25.53
2018-08-06T07:53:20.941Z,25.61
2018-08-06T07:54:20.930Z,25.68
2018-08-06T07:55:20.925Z,25.74
2018-08-06T07:56:20.914Z,25.64
2018-08-06T07:57:20.899Z,25.70
2018-08-06T07:58:20.896Z,25.70
2018-08-06T07:59:20.885Z,25.55
2018-08-06T08:00:20.875Z,25.70
2018-08-06T08:01:20.865Z,25.74
2018-08-06T08:02:20.864Z,25.70
2018-08-06T08:03:20.844Z,25.64
2018-08-06T08:04:20.836Z,25.67
2018-08-06T08:05:20.829Z,25.78
2018-08-06T08:06:20.876Z,26.00
2018-08-06T08:07:20.819Z,26.07
2018-08-06T08:08:20.801Z,26.12
2018-08-06T08:09:20.792Z,25.93
2018-08-06T08:10:20.782Z,26.08
2018-08-06T08:11:20.775Z,26.01
2018-08-06T08:12:20.764Z,26.05
2018-08-06T08:13:20.763Z,26.15
2018-08-06T08:14:20.750Z,26.08
2018-08-06T08:15:20.796Z,26.20
2018-08-06T08:16:20.735Z,26.24
2018-08-06T08:17:20.728Z,26.42
2018-08-06T08:18:20.715Z,26.52
2018-08-06T08:19:20.733Z,26.46
2018-08-06T08:20:20.929Z,26.33
2018-08-06T08:21:20.694Z,26.45
2018-08-06T08:22:20.697Z,26.53
2018-08-06T08:23:20.678Z,26.53
2018-08-06T08:24:20.663Z,26.56
2018-08-06T08:25:20.653Z,26.57
2018-08-06T08:26:20.646Z,26.63
2018-08-06T08:27:20.637Z,26.63
2018-08-06T08:28:20.634Z,26.63
2018-08-06T08:29:20.624Z,26.67
2018-08-06T08:30:20.616Z,26.83
2018-08-06T08:31:20.612Z,26.83
2018-08-06T08:32:20.597Z,26.94
2018-08-06T08:33:20.595Z,27.05
2018-08-06T08:34:20.580Z,27.19
2018-08-06T08:35:20.575Z,27.31
2018-08-06T08:36:20.563Z,27.37
2018-08-06T08:37:20.562Z,27.38
2018-08-06T08:38:20.549Z,27.40
2018-08-06T08:39:20.546Z,27.47
2018-08-06T08:40:20.531Z,27.58
2018-08-06T08:41:20.537Z,27.63
2018-08-06T08:42:20.516Z,27.68
2018-08-06T08:43:20.508Z,27.72
2018-08-06T08:44:20.502Z,27.68
2018-08-06T08:45:20.499Z,27.60
2018-08-06T08:46:20.491Z,27.47
2018-08-06T08:47:20.480Z,27.57
2018-08-06T08:48:20.474Z,27.49
2018-08-06T08:49:20.477Z,27.52
2018-08-06T08:50:20.457Z,27.44
2018-08-06T08:51:20.450Z,27.40
2018-08-06T08:52:20.497Z,27.27
2018-08-06T08:53:20.437Z,27.37
2018-08-06T08:54:20.425Z,27.41
2018-08-06T08:55:20.428Z,27.38
2018-08-06T08:56:20.419Z,27.42
2018-08-06T08:57:20.400Z,27.66
2018-08-06T08:58:20.405Z,27.72
2018-08-06T08:59:20.389Z,27.73
2018-08-06T09:00:20.380Z,27.80
2018-08-06T09:01:20.445Z,27.80
2018-08-06T09:02:20.376Z,27.94
2018-08-06T09:03:20.364Z,27.97
2018-08-06T09:04:20.348Z,28.07
2018-08-06T09:05:20.427Z,28.10
2018-08-06T09:06:20.339Z,28.19
2018-08-06T09:07:20.467Z,28.35
2018-08-06T09:08:20.318Z,28.37
2018-08-06T09:09:20.411Z,28.35
2018-08-06T09:10:20.308Z,28.54
2018-08-06T09:11:20.352Z,28.43
2018-08-06T09:12:20.292Z,28.61
2018-08-06T09:13:20.334Z,28.54
2018-08-06T09:14:20.282Z,28.20
2018-08-06T09:15:20.276Z,28.30
2018-08-06T09:16:20.272Z,28.34
2018-08-06T09:17:20.256Z,28.49
2018-08-06T09:18:20.251Z,28.66
2018-08-06T09:19:20.247Z,28.71
2018-08-06T09:20:20.227Z,28.86
2018-08-06T09:21:20.301Z,28.98
2018-08-06T09:22:20.216Z,29.18
2018-08-06T09:23:20.211Z,29.21
2018-08-06T09:24:20.207Z,29.27
2018-08-06T09:25:20.202Z,29.36
2018-08-06T09:26:20.187Z,29.31
2018-08-06T09:27:20.187Z,29.41
2018-08-06T09:28:20.183Z,29.34
2018-08-06T09:29:20.171Z,29.39
2018-08-06T09:30:20.164Z,29.33
2018-08-06T09:31:20.154Z,29.25
2018-08-06T09:32:20.147Z,29.25
2018-08-06T09:33:20.150Z,29.43
2018-08-06T09:34:20.135Z,29.55
2018-08-06T09:35:20.128Z,29.58
2018-08-06T09:36:20.122Z,29.59
2018-08-06T09:37:20.117Z,29.59
2018-08-06T09:38:20.106Z,29.73
2018-08-06T09:39:20.109Z,29.66
2018-08-06T09:40:20.170Z,29.52
2018-08-06T09:41:20.086Z,29.39
2018-08-06T09:42:20.255Z,29.44
2018-08-06T09:43:20.078Z,29.44
2018-08-06T09:44:20.146Z,29.44
2018-08-06T09:45:20.066Z,29.59
2018-08-06T09:46:20.157Z,29.58
2018-08-06T09:47:20.077Z,29.70
2018-08-06T09:48:20.147Z,29.80
2018-08-06T09:49:20.038Z,29.83
2018-08-06T09:50:20.138Z,29.84
2018-08-06T09:51:20.025Z,29.93
2018-08-06T09:52:20.027Z,29.95
2018-08-06T09:53:20.017Z,29.86
2018-08-06T09:54:20.013Z,29.77
2018-08-06T09:55:20.009Z,29.87
2018-08-06T09:56:19.998Z,29.96
2018-08-06T09:57:19.991Z,29.99
2018-08-06T09:58:19.983Z,30.05
2018-08-06T09:59:19.979Z,30.21
2018-08-06T10:00:19.972Z,30.30
2018-08-06T10:01:19.969Z,30.39
2018-08-06T10:02:19.966Z,30.13
2018-08-06T10:03:19.958Z,30.18
2018-08-06T10:04:19.948Z,30.29
2018-08-06T10:05:19.948Z,30.64
2018-08-06T10:06:20.074Z,30.77
2018-08-06T10:07:19.937Z,30.90
2018-08-06T10:08:19.926Z,30.83
2018-08-06T10:09:19.921Z,31.02
2018-08-06T10:10:19.915Z,31.14
2018-08-06T10:11:19.919Z,31.23
2018-08-06T10:12:19.916Z,31.37
2018-08-06T10:13:19.908Z,31.54
2018-08-06T10:14:19.895Z,31.70
2018-08-06T10:15:19.899Z,31.75
2018-08-06T10:16:19.888Z,31.89
2018-08-06T10:17:19.929Z,31.90
2018-08-06T10:18:19.882Z,32.02
2018-08-06T10:19:19.996Z,32.38
2018-08-06T10:20:19.867Z,32.53
2018-08-06T10:21:19.867Z,32.69
2018-08-06T10:22:19.865Z,32.94
2018-08-06T10:23:19.858Z,33.35
2018-08-06T10:24:19.847Z,33.19
2018-08-06T10:25:19.848Z,33.55
2018-08-06T10:26:19.848Z,33.27
2018-08-06T10:27:19.833Z,33.63
2018-08-06T10:28:19.829Z,33.51
2018-08-06T10:29:19.826Z,33.35
2018-08-06T10:30:19.873Z,33.57
2018-08-06T10:31:19.815Z,33.91
2018-08-06T10:32:19.808Z,34.06
2018-08-06T10:33:19.819Z,34.00
2018-08-06T10:34:19.802Z,34.03
2018-08-06T10:35:19.800Z,33.97
2018-08-06T10:36:19.791Z,33.95
2018-08-06T10:37:19.794Z,33.91
2018-08-06T10:38:19.787Z,33.93
2018-08-06T10:39:19.777Z,33.39
2018-08-06T10:40:19.799Z,33.48
2018-08-06T10:41:19.767Z,33.60
2018-08-06T10:42:19.763Z,33.54
2018-08-06T10:43:19.761Z,33.62
2018-08-06T10:44:19.759Z,33.64
2018-08-06T10:45:19.754Z,33.19
2018-08-06T10:46:19.748Z,33.13
2018-08-06T10:47:19.746Z,32.94
2018-08-06T10:48:19.810Z,32.83
2018-08-06T10:49:19.750Z,32.88
2018-08-06T10:50:19.739Z,32.48
2018-08-06T10:51:19.727Z,32.23
2018-08-06T10:52:19.722Z,32.20
2018-08-06T10:53:19.719Z,32.38
2018-08-06T10:54:19.719Z,32.42
2018-08-06T10:55:19.717Z,32.36
2018-08-06T10:56:19.716Z,32.41
2018-08-06T10:57:19.710Z,32.41
2018-08-06T10:58:19.698Z,32.35
2018-08-06T10:59:19.698Z,32.50
2018-08-06T11:00:19.689Z,32.61
2018-08-06T11:01:19.685Z,32.75
2018-08-06T11:02:19.677Z,32.73
2018-08-06T11:03:19.677Z,32.65
2018-08-06T11:04:19.678Z,32.87
2018-08-06T11:05:19.663Z,32.90
2018-08-06T11:06:19.667Z,32.97
2018-08-06T11:07:19.658Z,32.94
2018-08-06T11:08:19.668Z,32.97
2018-08-06T11:09:19.651Z,32.99
2018-08-06T11:10:19.649Z,33.04
2018-08-06T11:11:19.648Z,33.17
2018-08-06T11:12:19.638Z,32.97
2018-08-06T11:13:19.636Z,32.75
2018-08-06T11:14:19.672Z,32.65
2018-08-06T11:15:19.625Z,32.68
2018-08-06T11:16:19.625Z,32.90
2018-08-06T11:17:19.621Z,32.72
2018-08-06T11:18:19.616Z,32.83
2018-08-06T11:19:19.611Z,32.98
2018-08-06T11:20:19.654Z,33.09
2018-08-06T11:21:19.607Z,32.70
2018-08-06T11:22:19.600Z,32.75
2018-08-06T11:23:19.596Z,32.63
2018-08-06T11:24:19.594Z,32.70
2018-08-06T11:25:19.586Z,32.73
2018-08-06T11:26:19.588Z,32.79
2018-08-06T11:27:19.741Z,32.98
2018-08-06T11:28:19.578Z,32.98
2018-08-06T11:29:19.572Z,33.06
2018-08-06T11:30:19.567Z,33.06
2018-08-06T11:31:19.616Z,33.10
2018-08-06T11:32:19.562Z,33.16
2018-08-06T11:33:19.558Z,33.27
2018-08-06T11:34:19.553Z,33.33
2018-08-06T11:35:19.608Z,33.32
2018-08-06T11:36:19.550Z,33.36
2018-08-06T11:37:19.541Z,33.55
2018-08-06T11:38:19.541Z,33.78
2018-08-06T11:39:19.537Z,33.88
2018-08-06T11:40:19.534Z,33.98
2018-08-06T11:41:19.526Z,33.92
2018-08-06T11:42:19.526Z,34.18
2018-08-06T11:43:19.522Z,34.10
2018-08-06T11:44:19.518Z,34.19
2018-08-06T11:45:19.514Z,34.10
2018-08-06T11:46:19.512Z,34.13
2018-08-06T11:47:19.508Z,34.15
2018-08-06T11:48:19.507Z,34.19
2018-08-06T11:49:19.525Z,34.22
2018-08-06T11:50:19.503Z,34.19
2018-08-06T11:51:19.500Z,34.19
2018-08-06T11:52:19.501Z,34.18
2018-08-06T11:53:19.503Z,34.11
2018-08-06T11:54:19.489Z,34.15
2018-08-06T11:55:19.487Z,34.18
2018-08-06T11:56:19.599Z,34.23
2018-08-06T11:57:19.484Z,34.15
2018-08-06T11:58:20.381Z,34.32
2018-08-06T11:59:19.483Z,34.29
2018-08-06T12:00:19.471Z,34.37
2018-08-06T12:01:19.468Z,34.42
2018-08-06T12:02:19.472Z,34.48
2018-08-06T12:03:19.476Z,34.44
2018-08-06T12:04:19.472Z,34.48
2018-08-06T12:05:19.457Z,34.41
2018-08-06T12:06:19.459Z,34.47
2018-08-06T12:07:19.460Z,34.47
2018-08-06T12:08:19.547Z,34.42
2018-08-06T12:09:19.448Z,34.45
2018-08-06T12:10:19.519Z,34.47
2018-08-06T12:11:19.445Z,34.45
2018-08-06T12:12:19.471Z,34.55
2018-08-06T12:13:19.438Z,34.45
2018-08-06T12:14:19.436Z,34.44
2018-08-06T12:15:19.523Z,34.48
2018-08-06T12:16:19.427Z,34.66
2018-08-06T12:17:19.429Z,34.73
2018-08-06T12:18:19.434Z,34.70
2018-08-06T12:19:19.424Z,34.85
2018-08-06T12:20:19.445Z,34.86
2018-08-06T12:21:19.419Z,34.94
2018-08-06T12:22:19.416Z,34.85
2018-08-06T12:23:19.413Z,34.91
2018-08-06T12:24:19.409Z,34.86
2018-08-06T12:25:19.408Z,34.90
2018-08-06T12:26:19.454Z,34.94
2018-08-06T12:27:19.444Z,34.95
2018-08-06T12:28:19.402Z,35.01
2018-08-06T12:29:19.399Z,35.04
2018-08-06T12:30:19.398Z,34.92
2018-08-06T12:31:19.392Z,35.01
2018-08-06T12:32:19.401Z,34.98
2018-08-06T12:33:19.421Z,35.01
2018-08-06T12:34:19.386Z,34.99
2018-08-06T12:35:19.388Z,35.05
2018-08-06T12:36:19.386Z,34.98
2018-08-06T12:37:19.384Z,35.13
2018-08-06T12:38:19.406Z,35.12
2018-08-06T12:39:19.378Z,35.14
2018-08-06T12:40:19.381Z,35.16
2018-08-06T12:41:19.371Z,35.28
2018-08-06T12:42:19.370Z,35.39
2018-08-06T12:43:19.367Z,35.42
2018-08-06T12:44:19.367Z,35.48
2018-08-06T12:45:19.367Z,35.44
2018-08-06T12:46:19.543Z,35.61
2018-08-06T12:47:19.359Z,35.65
2018-08-06T12:48:19.371Z,35.76
2018-08-06T12:49:19.356Z,35.77
2018-08-06T12:50:19.356Z,35.69
2018-08-06T12:51:19.353Z,35.70
2018-08-06T12:52:19.347Z,35.77